Owens, Virginia
Current Conditions -  °F | °C
As of 8:55 AM on Friday 24 Oct 2014 (Local Time) from KEZF Reporting Station
Clear Clear  
Wind Chill: 56°   Ceiling: Unl
Heat Index: 56°   Visibility: 10mi
Dew Point: 44°   Wind: 6mph
Humidity: 65%   Direction: 310°NW
Pressure: 30"   Gusts: NA
Location:  38.265°N, 77.1228°W
Report Text: KEZF 241255Z AUTO 31005KT 10SM CLR 13/07 A3000 RMK AO2 T01320067
Loading
Personal Weather Stations






























Interactive Weather Map
Tropical Storm Tracking
New forecast layout! Learn more

10-Day Weather Forecast

Advertisements
Track Severe Weather on mobile